UAE247 SBGL-SAEZ
Flight info
| Callsign | UAE247 |
|---|---|
| Flight time | 3h 1m |
| Altitude | 38000 |
| Route | BITAK UN857 NELOX UM534 DADUT UN741 PAPIX PAPIX7A |
| Aircraft | B77W/H-SDE1E2E3FGHIJ2J3J4J5M1RWXY/LB1D1 |
Departure
| Time | 2026-05-06 09:39 |
|---|---|
| Airport | Rio Galeão – Tom Jobim International Airport (SBGL) |
Arrival
| Time | 2026-05-06 12:41 |
|---|---|
| Airport | Ezeiza International Airport - Ministro Pistarini (SAEZ) |
| Time | Latitude | Longitude | Altitude | Speed | Heading |
|---|---|---|---|---|---|
| 2026-05-06 09:10 | -22.81903 | -43.24279 | 44 ft | 0 kts | 306° |
| 2026-05-06 09:24 | -22.81911 | -43.24267 | 44 ft | 2 kts | 306° |
| 2026-05-06 09:25 | -22.81917 | -43.24259 | 44 ft | 2 kts | 305° |
| 2026-05-06 09:25 | -22.81924 | -43.24245 | 44 ft | 2 kts | 288° |
| 2026-05-06 09:25 | -22.81927 | -43.24229 | 44 ft | 2 kts | 271° |
| 2026-05-06 09:25 | -22.81926 | -43.24213 | 44 ft | 2 kts | 257° |
| 2026-05-06 09:26 | -22.81922 | -43.24197 | 44 ft | 2 kts | 242° |
| 2026-05-06 09:26 | -22.81913 | -43.24184 | 44 ft | 2 kts | 227° |
| 2026-05-06 09:26 | -22.81905 | -43.24176 | 44 ft | 0 kts | 216° |
| 2026-05-06 09:26 | -22.81903 | -43.24174 | 44 ft | 0 kts | 214° |
| 2026-05-06 09:28 | -22.81903 | -43.24175 | 44 ft | 0 kts | 214° |
| 2026-05-06 09:28 | -22.81919 | -43.24186 | 44 ft | 5 kts | 216° |
| 2026-05-06 09:29 | -22.81970 | -43.24227 | 44 ft | 11 kts | 216° |
| 2026-05-06 09:29 | -22.82038 | -43.24279 | 43 ft | 11 kts | 215° |
| 2026-05-06 09:29 | -22.82089 | -43.24332 | 41 ft | 9 kts | 264° |
| 2026-05-06 09:29 | -22.82064 | -43.24398 | 41 ft | 9 kts | 304° |
| 2026-05-06 09:30 | -22.82025 | -43.24454 | 41 ft | 9 kts | 307° |
| 2026-05-06 09:30 | -22.81988 | -43.24509 | 41 ft | 8 kts | 304° |
| 2026-05-06 09:30 | -22.81951 | -43.24567 | 41 ft | 10 kts | 304° |
| 2026-05-06 09:30 | -22.81936 | -43.24638 | 40 ft | 10 kts | 257° |
| 2026-05-06 09:31 | -22.81919 | -43.24721 | 39 ft | 12 kts | 304° |
| 2026-05-06 09:31 | -22.81865 | -43.24804 | 38 ft | 14 kts | 305° |
| 2026-05-06 09:31 | -22.81808 | -43.24890 | 37 ft | 13 kts | 305° |
| 2026-05-06 09:31 | -22.81753 | -43.24972 | 38 ft | 12 kts | 306° |
| 2026-05-06 09:32 | -22.81701 | -43.25051 | 38 ft | 13 kts | 306° |
| 2026-05-06 09:32 | -22.81646 | -43.25133 | 38 ft | 14 kts | 306° |
| 2026-05-06 09:32 | -22.81584 | -43.25225 | 38 ft | 15 kts | 305° |
| 2026-05-06 09:32 | -22.81519 | -43.25325 | 37 ft | 16 kts | 305° |
| 2026-05-06 09:33 | -22.81446 | -43.25435 | 35 ft | 18 kts | 305° |
| 2026-05-06 09:33 | -22.81366 | -43.25555 | 33 ft | 20 kts | 306° |
| 2026-05-06 09:33 | -22.81282 | -43.25683 | 32 ft | 20 kts | 305° |
| 2026-05-06 09:33 | -22.81201 | -43.25805 | 31 ft | 19 kts | 305° |
| 2026-05-06 09:34 | -22.81144 | -43.25891 | 31 ft | 9 kts | 305° |
| 2026-05-06 09:34 | -22.81093 | -43.25920 | 32 ft | 9 kts | 6° |
| 2026-05-06 09:34 | -22.81033 | -43.25884 | 33 ft | 11 kts | 34° |
| 2026-05-06 09:34 | -22.80962 | -43.25830 | 34 ft | 13 kts | 36° |
| 2026-05-06 09:35 | -22.80876 | -43.25763 | 34 ft | 16 kts | 35° |
| 2026-05-06 09:35 | -22.80787 | -43.25695 | 33 ft | 15 kts | 35° |
| 2026-05-06 09:35 | -22.80697 | -43.25626 | 31 ft | 15 kts | 35° |
| 2026-05-06 09:35 | -22.80611 | -43.25560 | 31 ft | 14 kts | 36° |
| 2026-05-06 09:36 | -22.80543 | -43.25526 | 31 ft | 9 kts | 350° |
| 2026-05-06 09:36 | -22.80485 | -43.25563 | 31 ft | 9 kts | 325° |
| 2026-05-06 09:36 | -22.80422 | -43.25605 | 31 ft | 11 kts | 337° |
| 2026-05-06 09:36 | -22.80348 | -43.25589 | 31 ft | 11 kts | 37° |
| 2026-05-06 09:37 | -22.80282 | -43.25534 | 31 ft | 12 kts | 38° |
| 2026-05-06 09:37 | -22.80226 | -43.25488 | 31 ft | 4 kts | 29° |
| 2026-05-06 09:37 | -22.80199 | -43.25487 | 31 ft | 3 kts | 356° |
| 2026-05-06 09:37 | -22.80179 | -43.25475 | 31 ft | 3 kts | 52° |
| 2026-05-06 09:38 | -22.80174 | -43.25460 | 31 ft | 3 kts | 74° |
| 2026-05-06 09:38 | -22.80166 | -43.25428 | 31 ft | 11 kts | 74° |
| 2026-05-06 09:38 | -22.80093 | -43.25143 | 31 ft | 78 kts | 75° |
| 2026-05-06 09:38 | -22.79874 | -43.24294 | 31 ft | 154 kts | 75° |
| 2026-05-06 09:39 | -22.79537 | -43.22980 | 332 ft | 196 kts | 74° |
| 2026-05-06 09:39 | -22.79176 | -43.21523 | 1192 ft | 210 kts | 76° |
| 2026-05-06 09:39 | -22.78853 | -43.19979 | 1998 ft | 216 kts | 77° |
| 2026-05-06 09:39 | -22.78520 | -43.18353 | 2623 ft | 230 kts | 77° |
| 2026-05-06 09:40 | -22.78156 | -43.16639 | 3420 ft | 236 kts | 76° |
| 2026-05-06 09:40 | -22.77789 | -43.14920 | 4297 ft | 237 kts | 77° |
| 2026-05-06 09:40 | -22.77044 | -43.11442 | 6087 ft | 241 kts | 78° |
| 2026-05-06 09:41 | -22.76664 | -43.09668 | 6802 ft | 246 kts | 78° |
| 2026-05-06 09:41 | -22.76277 | -43.07863 | 7531 ft | 249 kts | 78° |
| 2026-05-06 09:41 | -22.75887 | -43.06041 | 8236 ft | 251 kts | 78° |
| 2026-05-06 09:41 | -22.75792 | -43.04155 | 8764 ft | 254 kts | 102° |
| 2026-05-06 09:42 | -22.76506 | -43.02418 | 9281 ft | 258 kts | 129° |
| 2026-05-06 09:42 | -22.77874 | -43.01153 | 9840 ft | 262 kts | 146° |
| 2026-05-06 09:42 | -22.79440 | -43.00127 | 10464 ft | 263 kts | 148° |
| 2026-05-06 09:42 | -22.81035 | -42.99121 | 11017 ft | 268 kts | 148° |
| 2026-05-06 09:43 | -22.82642 | -42.98103 | 11622 ft | 271 kts | 150° |
| 2026-05-06 09:43 | -22.84432 | -42.97449 | 12185 ft | 278 kts | 174° |
| 2026-05-06 09:43 | -22.86395 | -42.97710 | 12671 ft | 290 kts | 199° |
| 2026-05-06 09:43 | -22.88187 | -42.98837 | 12935 ft | 310 kts | 216° |
| 2026-05-06 09:44 | -22.89930 | -43.00340 | 13257 ft | 328 kts | 218° |
| 2026-05-06 09:44 | -22.91762 | -43.01957 | 13613 ft | 346 kts | 218° |
| 2026-05-06 09:44 | -22.93667 | -43.03616 | 14047 ft | 361 kts | 218° |
| 2026-05-06 09:44 | -22.95665 | -43.05343 | 14531 ft | 375 kts | 218° |
| 2026-05-06 09:45 | -22.97765 | -43.07156 | 15051 ft | 389 kts | 218° |
| 2026-05-06 09:45 | -22.99898 | -43.08997 | 15625 ft | 400 kts | 218° |
| 2026-05-06 09:45 | -23.02079 | -43.10896 | 16396 ft | 404 kts | 219° |
| 2026-05-06 09:45 | -23.04266 | -43.12812 | 17207 ft | 406 kts | 219° |
| 2026-05-06 09:46 | -23.06467 | -43.14739 | 17944 ft | 410 kts | 219° |
| 2026-05-06 09:46 | -23.08680 | -43.16677 | 18683 ft | 413 kts | 219° |
| 2026-05-06 09:46 | -23.10939 | -43.18656 | 19430 ft | 417 kts | 219° |
| 2026-05-06 09:46 | -23.13199 | -43.20636 | 20197 ft | 419 kts | 219° |
| 2026-05-06 09:47 | -23.15456 | -43.22614 | 20945 ft | 422 kts | 219° |
| 2026-05-06 09:47 | -23.17743 | -43.24620 | 21613 ft | 426 kts | 219° |
| 2026-05-06 09:47 | -23.20060 | -43.26652 | 22269 ft | 430 kts | 219° |
| 2026-05-06 09:47 | -23.22383 | -43.28690 | 22964 ft | 432 kts | 219° |
| 2026-05-06 09:48 | -23.24722 | -43.30743 | 23675 ft | 434 kts | 219° |
| 2026-05-06 09:48 | -23.27103 | -43.32835 | 24345 ft | 437 kts | 219° |
| 2026-05-06 09:48 | -23.29441 | -43.34889 | 24953 ft | 440 kts | 219° |
| 2026-05-06 09:48 | -23.31854 | -43.37011 | 25642 ft | 442 kts | 219° |
| 2026-05-06 09:49 | -23.34250 | -43.39115 | 26338 ft | 444 kts | 218° |
| 2026-05-06 09:49 | -23.36681 | -43.41205 | 26992 ft | 447 kts | 218° |
| 2026-05-06 09:49 | -23.39111 | -43.43281 | 27613 ft | 450 kts | 218° |
| 2026-05-06 09:49 | -23.41587 | -43.45399 | 28259 ft | 453 kts | 218° |
| 2026-05-06 09:50 | -23.44083 | -43.47536 | 28903 ft | 455 kts | 217° |
| 2026-05-06 09:50 | -23.46587 | -43.49682 | 29569 ft | 457 kts | 218° |
| 2026-05-06 09:50 | -23.49057 | -43.51801 | 30325 ft | 456 kts | 218° |
| 2026-05-06 09:50 | -23.51534 | -43.53928 | 31283 ft | 449 kts | 218° |
| 2026-05-06 09:51 | -23.53938 | -43.55992 | 32244 ft | 442 kts | 218° |
| 2026-05-06 09:51 | -23.56337 | -43.58054 | 33132 ft | 435 kts | 218° |
| 2026-05-06 09:51 | -23.58688 | -43.60076 | 33838 ft | 431 kts | 218° |
| 2026-05-06 09:51 | -23.61044 | -43.62103 | 34426 ft | 430 kts | 218° |
| 2026-05-06 09:52 | -23.63329 | -43.64159 | 34947 ft | 429 kts | 222° |
| 2026-05-06 09:52 | -23.65525 | -43.66476 | 35526 ft | 427 kts | 224° |
| 2026-05-06 09:52 | -23.67666 | -43.68774 | 36078 ft | 425 kts | 224° |
| 2026-05-06 09:52 | -23.69829 | -43.71097 | 36136 ft | 427 kts | 224° |
| 2026-05-06 09:53 | -23.74110 | -43.75698 | 36139 ft | 422 kts | 224° |
| 2026-05-06 09:53 | -23.78249 | -43.80147 | 36139 ft | 422 kts | 224° |
| 2026-05-06 09:54 | -23.82434 | -43.84649 | 36134 ft | 422 kts | 223° |
| 2026-05-06 09:54 | -23.86620 | -43.89157 | 36135 ft | 421 kts | 224° |
| 2026-05-06 09:55 | -23.90789 | -43.93649 | 36134 ft | 421 kts | 224° |
| 2026-05-06 09:55 | -23.94942 | -43.98130 | 36129 ft | 421 kts | 224° |
| 2026-05-06 09:56 | -23.99101 | -44.02622 | 36127 ft | 421 kts | 224° |
| 2026-05-06 09:56 | -24.03268 | -44.07125 | 36128 ft | 419 kts | 224° |
| 2026-05-06 09:57 | -24.07435 | -44.11634 | 36122 ft | 420 kts | 224° |
| 2026-05-06 09:57 | -24.11586 | -44.16129 | 36140 ft | 420 kts | 224° |
| 2026-05-06 09:58 | -24.15724 | -44.20614 | 36132 ft | 419 kts | 224° |
| 2026-05-06 09:58 | -24.19882 | -44.25126 | 36132 ft | 419 kts | 224° |
| 2026-05-06 09:59 | -24.24010 | -44.29610 | 36134 ft | 420 kts | 224° |
| 2026-05-06 09:59 | -24.28141 | -44.34101 | 36132 ft | 419 kts | 224° |
| 2026-05-06 10:00 | -24.32316 | -44.38644 | 36130 ft | 419 kts | 224° |
| 2026-05-06 10:00 | -24.36473 | -44.43172 | 36128 ft | 418 kts | 224° |
| 2026-05-06 10:01 | -24.40590 | -44.47661 | 36127 ft | 419 kts | 224° |
| 2026-05-06 10:01 | -24.44734 | -44.52184 | 36127 ft | 417 kts | 224° |
| 2026-05-06 10:02 | -24.48864 | -44.56696 | 36125 ft | 418 kts | 224° |
| 2026-05-06 10:02 | -24.52966 | -44.61247 | 36124 ft | 418 kts | 224° |
| 2026-05-06 10:03 | -24.57033 | -44.65796 | 36127 ft | 417 kts | 225° |
| 2026-05-06 10:03 | -24.61105 | -44.70352 | 36132 ft | 417 kts | 225° |
| 2026-05-06 10:04 | -24.65079 | -44.74802 | 36131 ft | 418 kts | 225° |
| 2026-05-06 10:04 | -24.69041 | -44.79240 | 36132 ft | 417 kts | 225° |
| 2026-05-06 10:05 | -24.73101 | -44.83793 | 36133 ft | 417 kts | 225° |
| 2026-05-06 10:05 | -24.77171 | -44.88361 | 36132 ft | 417 kts | 225° |
| 2026-05-06 10:06 | -24.81212 | -44.92901 | 36129 ft | 416 kts | 225° |
| 2026-05-06 10:06 | -24.85289 | -44.97486 | 36133 ft | 417 kts | 225° |
| 2026-05-06 10:07 | -24.89347 | -45.02055 | 36130 ft | 416 kts | 225° |
| 2026-05-06 10:07 | -24.93397 | -45.06618 | 36129 ft | 415 kts | 225° |
| 2026-05-06 10:08 | -24.97420 | -45.11156 | 36127 ft | 416 kts | 225° |
| 2026-05-06 10:08 | -25.01479 | -45.15739 | 36127 ft | 416 kts | 225° |
| 2026-05-06 10:09 | -25.05510 | -45.20296 | 36125 ft | 415 kts | 225° |
| 2026-05-06 10:09 | -25.09545 | -45.24860 | 36124 ft | 415 kts | 225° |
| 2026-05-06 10:10 | -25.13572 | -45.29422 | 36135 ft | 415 kts | 225° |
| 2026-05-06 10:10 | -25.17594 | -45.33981 | 36130 ft | 413 kts | 225° |
| 2026-05-06 10:11 | -25.21589 | -45.38514 | 36129 ft | 415 kts | 225° |
| 2026-05-06 10:11 | -25.25614 | -45.43086 | 36129 ft | 414 kts | 225° |
| 2026-05-06 10:12 | -25.29625 | -45.47647 | 36128 ft | 413 kts | 225° |
| 2026-05-06 10:12 | -25.33642 | -45.52220 | 36127 ft | 413 kts | 225° |
| 2026-05-06 10:13 | -25.37628 | -45.56762 | 36125 ft | 413 kts | 225° |
| 2026-05-06 10:13 | -25.41625 | -45.61320 | 36123 ft | 413 kts | 225° |
| 2026-05-06 10:14 | -25.45630 | -45.65893 | 36128 ft | 414 kts | 225° |
| 2026-05-06 10:14 | -25.49584 | -45.70412 | 36131 ft | 414 kts | 225° |
| 2026-05-06 10:15 | -25.53600 | -45.75006 | 36132 ft | 412 kts | 226° |
| 2026-05-06 10:15 | -25.57584 | -45.79569 | 36129 ft | 414 kts | 225° |
| 2026-05-06 10:16 | -25.61578 | -45.84148 | 36133 ft | 413 kts | 225° |
| 2026-05-06 10:16 | -25.65564 | -45.88722 | 36131 ft | 412 kts | 225° |
| 2026-05-06 10:17 | -25.69576 | -45.93332 | 36128 ft | 413 kts | 226° |
| 2026-05-06 10:17 | -25.73586 | -45.97945 | 36128 ft | 413 kts | 225° |
| 2026-05-06 10:18 | -25.77607 | -46.02575 | 36128 ft | 412 kts | 225° |
| 2026-05-06 10:18 | -25.81582 | -46.07158 | 36126 ft | 412 kts | 225° |
| 2026-05-06 10:19 | -25.85567 | -46.11756 | 36126 ft | 413 kts | 226° |
| 2026-05-06 10:19 | -25.89524 | -46.16327 | 36121 ft | 412 kts | 226° |
| 2026-05-06 10:20 | -25.93511 | -46.20937 | 36120 ft | 413 kts | 225° |
| 2026-05-06 10:20 | -25.97480 | -46.25531 | 36123 ft | 412 kts | 225° |
| 2026-05-06 10:21 | -26.01424 | -46.30102 | 36120 ft | 410 kts | 226° |
| 2026-05-06 10:21 | -26.05403 | -46.34717 | 36120 ft | 412 kts | 226° |
| 2026-05-06 10:22 | -26.09368 | -46.39320 | 36117 ft | 413 kts | 225° |
| 2026-05-06 10:22 | -26.13330 | -46.43926 | 36128 ft | 411 kts | 226° |
| 2026-05-06 10:23 | -26.17290 | -46.48534 | 36127 ft | 412 kts | 225° |
| 2026-05-06 10:23 | -26.21236 | -46.53130 | 36125 ft | 409 kts | 226° |
| 2026-05-06 10:24 | -26.25180 | -46.57730 | 36122 ft | 411 kts | 226° |
| 2026-05-06 10:24 | -26.29122 | -46.62331 | 36122 ft | 411 kts | 226° |
| 2026-05-06 10:25 | -26.33053 | -46.66924 | 36133 ft | 410 kts | 226° |
| 2026-05-06 10:25 | -26.36984 | -46.71522 | 36133 ft | 411 kts | 226° |
| 2026-05-06 10:26 | -26.40860 | -46.76060 | 36130 ft | 409 kts | 226° |
| 2026-05-06 10:26 | -26.44782 | -46.80659 | 36129 ft | 410 kts | 226° |
| 2026-05-06 10:27 | -26.48701 | -46.85257 | 36130 ft | 410 kts | 226° |
| 2026-05-06 10:27 | -26.52617 | -46.89857 | 36130 ft | 409 kts | 226° |
| 2026-05-06 10:28 | -26.56534 | -46.94463 | 36126 ft | 409 kts | 226° |
| 2026-05-06 10:28 | -26.60448 | -46.99071 | 36126 ft | 411 kts | 226° |
| 2026-05-06 10:29 | -26.64353 | -47.03695 | 36126 ft | 408 kts | 226° |
| 2026-05-06 10:29 | -26.68264 | -47.08334 | 36127 ft | 408 kts | 226° |
| 2026-05-06 10:30 | -26.72139 | -47.12935 | 36123 ft | 409 kts | 226° |
| 2026-05-06 10:30 | -26.76037 | -47.17578 | 36125 ft | 409 kts | 226° |
| 2026-05-06 10:31 | -26.79929 | -47.22222 | 36122 ft | 408 kts | 226° |
| 2026-05-06 10:31 | -26.83794 | -47.26839 | 36126 ft | 409 kts | 226° |
| 2026-05-06 10:32 | -26.87672 | -47.31475 | 36125 ft | 407 kts | 226° |
| 2026-05-06 10:32 | -26.91545 | -47.36112 | 36123 ft | 408 kts | 227° |
| 2026-05-06 10:33 | -26.95421 | -47.40759 | 36123 ft | 407 kts | 226° |
| 2026-05-06 10:33 | -26.99292 | -47.45404 | 36122 ft | 407 kts | 226° |
| 2026-05-06 10:34 | -27.03188 | -47.50084 | 36125 ft | 407 kts | 226° |
| 2026-05-06 10:34 | -27.07053 | -47.54733 | 36119 ft | 405 kts | 226° |
| 2026-05-06 10:35 | -27.10930 | -47.59400 | 36126 ft | 405 kts | 226° |
| 2026-05-06 10:35 | -27.14769 | -47.64027 | 36130 ft | 405 kts | 226° |
| 2026-05-06 10:36 | -27.18594 | -47.68642 | 36140 ft | 405 kts | 227° |
| 2026-05-06 10:36 | -27.22430 | -47.73276 | 36133 ft | 405 kts | 227° |
| 2026-05-06 10:37 | -27.26061 | -47.77666 | 36134 ft | 404 kts | 227° |
| 2026-05-06 10:37 | -27.29882 | -47.82290 | 36128 ft | 406 kts | 227° |
| 2026-05-06 10:38 | -27.33710 | -47.86929 | 36130 ft | 404 kts | 227° |
| 2026-05-06 10:38 | -27.37562 | -47.91602 | 36123 ft | 405 kts | 227° |
| 2026-05-06 10:39 | -27.41403 | -47.96286 | 36126 ft | 404 kts | 227° |
| 2026-05-06 10:39 | -27.45217 | -48.00966 | 36118 ft | 405 kts | 227° |
| 2026-05-06 10:40 | -27.49022 | -48.05637 | 36125 ft | 404 kts | 227° |
| 2026-05-06 10:40 | -27.52828 | -48.10314 | 36116 ft | 404 kts | 227° |
| 2026-05-06 10:41 | -27.56623 | -48.14982 | 36111 ft | 403 kts | 227° |
| 2026-05-06 10:41 | -27.60413 | -48.19649 | 36113 ft | 405 kts | 227° |
| 2026-05-06 10:42 | -27.64226 | -48.24349 | 36112 ft | 404 kts | 227° |
| 2026-05-06 10:42 | -27.68004 | -48.29012 | 36104 ft | 404 kts | 227° |
| 2026-05-06 10:43 | -27.71814 | -48.33720 | 36107 ft | 404 kts | 227° |
| 2026-05-06 10:44 | -27.77501 | -48.40755 | 36103 ft | 403 kts | 227° |
| 2026-05-06 10:44 | -27.81317 | -48.45482 | 36103 ft | 404 kts | 227° |
| 2026-05-06 10:45 | -27.85096 | -48.50169 | 36098 ft | 403 kts | 227° |
| 2026-05-06 10:45 | -27.88884 | -48.54873 | 36105 ft | 402 kts | 227° |
| 2026-05-06 10:46 | -27.92655 | -48.59559 | 36108 ft | 403 kts | 227° |
| 2026-05-06 10:46 | -27.96442 | -48.64272 | 36114 ft | 402 kts | 227° |
| 2026-05-06 10:47 | -28.00185 | -48.68936 | 36133 ft | 402 kts | 228° |
| 2026-05-06 10:47 | -28.03964 | -48.73650 | 36142 ft | 402 kts | 227° |
| 2026-05-06 10:48 | -28.07478 | -48.78037 | 36134 ft | 400 kts | 228° |
| 2026-05-06 10:48 | -28.11245 | -48.82745 | 36145 ft | 401 kts | 228° |
| 2026-05-06 10:49 | -28.15004 | -48.87449 | 36142 ft | 399 kts | 228° |
| 2026-05-06 10:49 | -28.18743 | -48.92133 | 36133 ft | 401 kts | 228° |
| 2026-05-06 10:50 | -28.22465 | -48.96801 | 36120 ft | 398 kts | 228° |
| 2026-05-06 10:50 | -28.26774 | -49.02211 | 36114 ft | 398 kts | 228° |
| 2026-05-06 10:51 | -28.29871 | -49.06077 | 36119 ft | 398 kts | 227° |
| 2026-05-06 10:51 | -28.33591 | -49.10686 | 36127 ft | 398 kts | 228° |
| 2026-05-06 10:52 | -28.37324 | -49.15316 | 36134 ft | 395 kts | 228° |
| 2026-05-06 10:52 | -28.41061 | -49.19960 | 36133 ft | 397 kts | 227° |
| 2026-05-06 10:53 | -28.44759 | -49.24560 | 36141 ft | 395 kts | 228° |
| 2026-05-06 10:53 | -28.48457 | -49.29167 | 36148 ft | 395 kts | 227° |
| 2026-05-06 10:54 | -28.52194 | -49.33828 | 36141 ft | 397 kts | 228° |
| 2026-05-06 10:54 | -28.55888 | -49.38441 | 36135 ft | 393 kts | 228° |
| 2026-05-06 10:55 | -28.59570 | -49.43044 | 36136 ft | 395 kts | 228° |
| 2026-05-06 10:55 | -28.63270 | -49.47674 | 36131 ft | 395 kts | 228° |
| 2026-05-06 10:56 | -28.66940 | -49.52272 | 36133 ft | 395 kts | 228° |
| 2026-05-06 10:56 | -28.70630 | -49.56900 | 36134 ft | 394 kts | 228° |
| 2026-05-06 10:57 | -28.74323 | -49.61538 | 36129 ft | 395 kts | 228° |
| 2026-05-06 10:57 | -28.77995 | -49.66155 | 36155 ft | 393 kts | 228° |
| 2026-05-06 10:58 | -28.81665 | -49.70774 | 36163 ft | 393 kts | 229° |
| 2026-05-06 10:58 | -28.85338 | -49.75402 | 36145 ft | 394 kts | 229° |
| 2026-05-06 10:59 | -28.88579 | -49.79490 | 36164 ft | 392 kts | 228° |
| 2026-05-06 10:59 | -28.92946 | -49.84849 | 36188 ft | 394 kts | 227° |
| 2026-05-06 11:00 | -28.96053 | -49.88539 | 36206 ft | 392 kts | 227° |
| 2026-05-06 11:00 | -28.99830 | -49.93040 | 36214 ft | 392 kts | 227° |
| 2026-05-06 11:01 | -29.03603 | -49.97547 | 36225 ft | 393 kts | 227° |
| 2026-05-06 11:01 | -29.07376 | -50.02063 | 36218 ft | 392 kts | 227° |
| 2026-05-06 11:02 | -29.11156 | -50.06594 | 36222 ft | 393 kts | 227° |
| 2026-05-06 11:02 | -29.14836 | -50.11012 | 36223 ft | 392 kts | 227° |
| 2026-05-06 11:03 | -29.19247 | -50.16312 | 36229 ft | 395 kts | 227° |
| 2026-05-06 11:03 | -29.22398 | -50.20103 | 36226 ft | 392 kts | 227° |
| 2026-05-06 11:04 | -29.26150 | -50.24623 | 36236 ft | 392 kts | 227° |
| 2026-05-06 11:04 | -29.29908 | -50.29154 | 36228 ft | 394 kts | 227° |
| 2026-05-06 11:05 | -29.33675 | -50.33702 | 36215 ft | 392 kts | 227° |
| 2026-05-06 11:05 | -29.38054 | -50.38994 | 36207 ft | 394 kts | 228° |
| 2026-05-06 11:06 | -29.41167 | -50.42761 | 36211 ft | 391 kts | 228° |
| 2026-05-06 11:06 | -29.44923 | -50.47311 | 36212 ft | 392 kts | 228° |
| 2026-05-06 11:07 | -29.48668 | -50.51853 | 36219 ft | 393 kts | 227° |
| 2026-05-06 11:07 | -29.52441 | -50.56435 | 36190 ft | 393 kts | 227° |
| 2026-05-06 11:08 | -29.56096 | -50.61027 | 36160 ft | 391 kts | 229° |
| 2026-05-06 11:08 | -29.59773 | -50.65700 | 36139 ft | 394 kts | 229° |
| 2026-05-06 11:09 | -29.63447 | -50.70365 | 36118 ft | 393 kts | 229° |
| 2026-05-06 11:09 | -29.67307 | -50.75269 | 36113 ft | 391 kts | 229° |
| 2026-05-06 11:10 | -29.70372 | -50.79167 | 36110 ft | 392 kts | 229° |
| 2026-05-06 11:10 | -29.74590 | -50.84536 | 36097 ft | 392 kts | 229° |
| 2026-05-06 11:11 | -29.77639 | -50.88421 | 36088 ft | 391 kts | 229° |
| 2026-05-06 11:11 | -29.81904 | -50.93863 | 36075 ft | 393 kts | 229° |
| 2026-05-06 11:12 | -29.84949 | -50.97752 | 36066 ft | 392 kts | 229° |
| 2026-05-06 11:12 | -29.89195 | -51.03180 | 36066 ft | 391 kts | 229° |
| 2026-05-06 11:13 | -29.92238 | -51.07076 | 36064 ft | 393 kts | 229° |
| 2026-05-06 11:13 | -29.95880 | -51.11743 | 36052 ft | 392 kts | 229° |
| 2026-05-06 11:14 | -29.99326 | -51.16582 | 36041 ft | 391 kts | 238° |
| 2026-05-06 11:14 | -30.01545 | -51.22255 | 36042 ft | 391 kts | 246° |
| 2026-05-06 11:15 | -30.03529 | -51.28070 | 36041 ft | 391 kts | 246° |
| 2026-05-06 11:15 | -30.05519 | -51.33921 | 36040 ft | 391 kts | 246° |
| 2026-05-06 11:16 | -30.07498 | -51.39755 | 36039 ft | 391 kts | 246° |
| 2026-05-06 11:16 | -30.09461 | -51.45553 | 36038 ft | 389 kts | 246° |
| 2026-05-06 11:17 | -30.11435 | -51.51395 | 36051 ft | 390 kts | 246° |
| 2026-05-06 11:17 | -30.13323 | -51.56992 | 36046 ft | 390 kts | 247° |
| 2026-05-06 11:18 | -30.15293 | -51.62841 | 36049 ft | 390 kts | 247° |
| 2026-05-06 11:18 | -30.17263 | -51.68702 | 36060 ft | 389 kts | 247° |
| 2026-05-06 11:19 | -30.19214 | -51.74515 | 36060 ft | 389 kts | 247° |
| 2026-05-06 11:19 | -30.21002 | -51.79852 | 36060 ft | 390 kts | 247° |
| 2026-05-06 11:20 | -30.23244 | -51.86554 | 36058 ft | 388 kts | 248° |
| 2026-05-06 11:20 | -30.24882 | -51.91459 | 36058 ft | 388 kts | 248° |
| 2026-05-06 11:21 | -30.26818 | -51.97268 | 36056 ft | 389 kts | 247° |
| 2026-05-06 11:21 | -30.28764 | -52.03099 | 36058 ft | 389 kts | 247° |
| 2026-05-06 11:22 | -30.31038 | -52.09882 | 36058 ft | 388 kts | 248° |
| 2026-05-06 11:22 | -30.32656 | -52.14716 | 36061 ft | 388 kts | 248° |
| 2026-05-06 11:23 | -30.34597 | -52.20525 | 36060 ft | 387 kts | 248° |
| 2026-05-06 11:23 | -30.36535 | -52.26337 | 36060 ft | 390 kts | 247° |
| 2026-05-06 11:24 | -30.38481 | -52.32194 | 36059 ft | 387 kts | 248° |
| 2026-05-06 11:24 | -30.40731 | -52.39007 | 36053 ft | 388 kts | 248° |
| 2026-05-06 11:25 | -30.42338 | -52.43878 | 36053 ft | 387 kts | 247° |
| 2026-05-06 11:25 | -30.44259 | -52.49707 | 36056 ft | 387 kts | 248° |
| 2026-05-06 11:26 | -30.46178 | -52.55545 | 36055 ft | 387 kts | 248° |
| 2026-05-06 11:26 | -30.48084 | -52.61353 | 36053 ft | 387 kts | 248° |
| 2026-05-06 11:27 | -30.50002 | -52.67204 | 36073 ft | 388 kts | 248° |
| 2026-05-06 11:27 | -30.52248 | -52.74069 | 36072 ft | 388 kts | 248° |
| 2026-05-06 11:28 | -30.54141 | -52.79866 | 36073 ft | 387 kts | 248° |
| 2026-05-06 11:28 | -30.56050 | -52.85722 | 36069 ft | 387 kts | 248° |
| 2026-05-06 11:29 | -30.57597 | -52.90476 | 36065 ft | 387 kts | 248° |
| 2026-05-06 11:29 | -30.59535 | -52.96440 | 36064 ft | 387 kts | 248° |
| 2026-05-06 11:30 | -30.61748 | -53.03263 | 36061 ft | 386 kts | 248° |
| 2026-05-06 11:30 | -30.63317 | -53.08111 | 36059 ft | 386 kts | 248° |
| 2026-05-06 11:31 | -30.65504 | -53.14875 | 36054 ft | 387 kts | 249° |
| 2026-05-06 11:31 | -30.67078 | -53.19752 | 36051 ft | 385 kts | 248° |
| 2026-05-06 11:32 | -30.69270 | -53.26551 | 36044 ft | 384 kts | 249° |
| 2026-05-06 11:32 | -30.70828 | -53.31393 | 36050 ft | 386 kts | 248° |
| 2026-05-06 11:33 | -30.72709 | -53.37249 | 36050 ft | 386 kts | 249° |
| 2026-05-06 11:33 | -30.74610 | -53.43006 | 36051 ft | 383 kts | 248° |
| 2026-05-06 11:34 | -30.76561 | -53.48824 | 36049 ft | 384 kts | 248° |
| 2026-05-06 11:34 | -30.78501 | -53.54629 | 36048 ft | 385 kts | 248° |
| 2026-05-06 11:35 | -30.80436 | -53.60433 | 36043 ft | 383 kts | 248° |
| 2026-05-06 11:35 | -30.82678 | -53.67173 | 36061 ft | 382 kts | 249° |
| 2026-05-06 11:36 | -30.84274 | -53.71981 | 36061 ft | 384 kts | 249° |
| 2026-05-06 11:36 | -30.86190 | -53.77763 | 36059 ft | 381 kts | 248° |
| 2026-05-06 11:37 | -30.87855 | -53.82797 | 36060 ft | 382 kts | 248° |
| 2026-05-06 11:37 | -30.89758 | -53.88558 | 36063 ft | 382 kts | 248° |
| 2026-05-06 11:38 | -30.91617 | -53.94195 | 36066 ft | 380 kts | 249° |
| 2026-05-06 11:38 | -30.93512 | -53.99953 | 36066 ft | 381 kts | 249° |
| 2026-05-06 11:39 | -30.95404 | -54.05709 | 36065 ft | 381 kts | 249° |
| 2026-05-06 11:39 | -30.97279 | -54.11424 | 36062 ft | 380 kts | 248° |
| 2026-05-06 11:40 | -31.00057 | -54.16649 | 36056 ft | 386 kts | 230° |
| 2026-05-06 11:40 | -31.03987 | -54.20970 | 36055 ft | 387 kts | 228° |
| 2026-05-06 11:41 | -31.07930 | -54.25201 | 36055 ft | 389 kts | 228° |
| 2026-05-06 11:41 | -31.11894 | -54.29464 | 36059 ft | 387 kts | 227° |
| 2026-05-06 11:42 | -31.15883 | -54.33764 | 36047 ft | 389 kts | 227° |
| 2026-05-06 11:42 | -31.19659 | -54.37840 | 36041 ft | 388 kts | 228° |
| 2026-05-06 11:43 | -31.23499 | -54.41989 | 36035 ft | 389 kts | 228° |
| 2026-05-06 11:43 | -31.27478 | -54.46297 | 36029 ft | 390 kts | 228° |
| 2026-05-06 11:44 | -31.33388 | -54.52701 | 36023 ft | 393 kts | 228° |
| 2026-05-06 11:44 | -31.38000 | -54.57706 | 36015 ft | 388 kts | 227° |
| 2026-05-06 11:45 | -31.41314 | -54.61309 | 36015 ft | 391 kts | 228° |
| 2026-05-06 11:45 | -31.45299 | -54.65638 | 36023 ft | 390 kts | 229° |
| 2026-05-06 11:46 | -31.49265 | -54.69898 | 36025 ft | 387 kts | 229° |
| 2026-05-06 11:46 | -31.53035 | -54.73953 | 36025 ft | 391 kts | 229° |
| 2026-05-06 11:47 | -31.57054 | -54.78283 | 36023 ft | 392 kts | 229° |
| 2026-05-06 11:47 | -31.61051 | -54.82593 | 36017 ft | 390 kts | 229° |
| 2026-05-06 11:48 | -31.65078 | -54.86944 | 36017 ft | 392 kts | 228° |
| 2026-05-06 11:48 | -31.69072 | -54.91264 | 36016 ft | 394 kts | 228° |
| 2026-05-06 11:49 | -31.73763 | -54.96343 | 36011 ft | 392 kts | 229° |
| 2026-05-06 11:49 | -31.77082 | -54.99941 | 36009 ft | 392 kts | 229° |
| 2026-05-06 11:50 | -31.81086 | -55.04288 | 36005 ft | 395 kts | 229° |
| 2026-05-06 11:50 | -31.85132 | -55.08685 | 35994 ft | 393 kts | 229° |
| 2026-05-06 11:51 | -31.89138 | -55.13044 | 35993 ft | 394 kts | 229° |
| 2026-05-06 11:51 | -31.93159 | -55.17425 | 35989 ft | 394 kts | 229° |
| 2026-05-06 11:52 | -31.97189 | -55.21822 | 35993 ft | 394 kts | 229° |
| 2026-05-06 11:52 | -32.01194 | -55.26197 | 35992 ft | 394 kts | 228° |
| 2026-05-06 11:53 | -32.05900 | -55.31345 | 35979 ft | 395 kts | 229° |
| 2026-05-06 11:53 | -32.09904 | -55.35730 | 35979 ft | 396 kts | 229° |
| 2026-05-06 11:54 | -32.13264 | -55.39414 | 35979 ft | 393 kts | 229° |
| 2026-05-06 11:54 | -32.17283 | -55.43827 | 35977 ft | 397 kts | 229° |
| 2026-05-06 11:55 | -32.21074 | -55.47991 | 35973 ft | 390 kts | 229° |
| 2026-05-06 11:55 | -32.25069 | -55.52390 | 35976 ft | 393 kts | 229° |
| 2026-05-06 11:56 | -32.29549 | -55.57325 | 35968 ft | 390 kts | 230° |
| 2026-05-06 11:56 | -32.32843 | -55.60961 | 35972 ft | 393 kts | 229° |
| 2026-05-06 11:57 | -32.37511 | -55.66118 | 35985 ft | 394 kts | 230° |
| 2026-05-06 11:57 | -32.40863 | -55.69826 | 35987 ft | 394 kts | 230° |
| 2026-05-06 11:58 | -32.44769 | -55.74150 | 35987 ft | 390 kts | 230° |
| 2026-05-06 11:58 | -32.48755 | -55.78571 | 35980 ft | 391 kts | 230° |
| 2026-05-06 11:59 | -32.52698 | -55.82948 | 35980 ft | 391 kts | 230° |
| 2026-05-06 11:59 | -32.56693 | -55.87390 | 35983 ft | 391 kts | 230° |
| 2026-05-06 12:00 | -32.60650 | -55.91793 | 35976 ft | 390 kts | 230° |
| 2026-05-06 12:00 | -32.64594 | -55.96190 | 35980 ft | 394 kts | 230° |
| 2026-05-06 12:01 | -32.68573 | -56.00628 | 35972 ft | 389 kts | 231° |
| 2026-05-06 12:01 | -32.72514 | -56.05033 | 35970 ft | 392 kts | 231° |
| 2026-05-06 12:02 | -32.77144 | -56.10212 | 35969 ft | 390 kts | 231° |
| 2026-05-06 12:02 | -32.80456 | -56.13926 | 35963 ft | 392 kts | 230° |
| 2026-05-06 12:03 | -32.84388 | -56.18333 | 35968 ft | 392 kts | 231° |
| 2026-05-06 12:03 | -32.88328 | -56.22758 | 35965 ft | 390 kts | 231° |
| 2026-05-06 12:04 | -32.92296 | -56.27222 | 35960 ft | 393 kts | 230° |
| 2026-05-06 12:04 | -32.96240 | -56.31662 | 35959 ft | 392 kts | 231° |
| 2026-05-06 12:05 | -33.00844 | -56.36862 | 35956 ft | 389 kts | 231° |
| 2026-05-06 12:05 | -33.04108 | -56.40566 | 35957 ft | 392 kts | 231° |
| 2026-05-06 12:06 | -33.08070 | -56.45065 | 35954 ft | 390 kts | 231° |
| 2026-05-06 12:06 | -33.11979 | -56.49509 | 35961 ft | 394 kts | 231° |
| 2026-05-06 12:07 | -33.15957 | -56.54037 | 35954 ft | 391 kts | 231° |
| 2026-05-06 12:07 | -33.19779 | -56.58393 | 35950 ft | 392 kts | 231° |
| 2026-05-06 12:08 | -33.23743 | -56.62908 | 35952 ft | 390 kts | 231° |
| 2026-05-06 12:08 | -33.27478 | -56.67174 | 35970 ft | 397 kts | 232° |
| 2026-05-06 12:09 | -33.32089 | -56.72438 | 35964 ft | 389 kts | 232° |
| 2026-05-06 12:09 | -33.35907 | -56.76811 | 35964 ft | 394 kts | 232° |
| 2026-05-06 12:10 | -33.39872 | -56.81353 | 35966 ft | 394 kts | 231° |
| 2026-05-06 12:10 | -33.43152 | -56.85117 | 35964 ft | 393 kts | 232° |
| 2026-05-06 12:11 | -33.47105 | -56.89657 | 35962 ft | 394 kts | 232° |
| 2026-05-06 12:11 | -33.51063 | -56.94210 | 35958 ft | 394 kts | 231° |
| 2026-05-06 12:12 | -33.55649 | -56.99493 | 35957 ft | 393 kts | 231° |
| 2026-05-06 12:12 | -33.58923 | -57.03269 | 35953 ft | 395 kts | 232° |
| 2026-05-06 12:13 | -33.62910 | -57.07873 | 35954 ft | 395 kts | 232° |
| 2026-05-06 12:13 | -33.66834 | -57.12410 | 35954 ft | 395 kts | 232° |
| 2026-05-06 12:14 | -33.70790 | -57.16992 | 35944 ft | 396 kts | 231° |
| 2026-05-06 12:14 | -33.74752 | -57.21586 | 35949 ft | 396 kts | 231° |
| 2026-05-06 12:15 | -33.78681 | -57.26146 | 35952 ft | 394 kts | 231° |
| 2026-05-06 12:15 | -33.80630 | -57.28408 | 35642 ft | 387 kts | 232° |
| 2026-05-06 12:15 | -33.82559 | -57.30651 | 34887 ft | 388 kts | 232° |
| 2026-05-06 12:16 | -33.84502 | -57.32915 | 34061 ft | 391 kts | 232° |
| 2026-05-06 12:16 | -33.86479 | -57.35225 | 33319 ft | 408 kts | 231° |
| 2026-05-06 12:16 | -33.89257 | -57.38473 | 32286 ft | 423 kts | 230° |
| 2026-05-06 12:16 | -33.91348 | -57.40907 | 31967 ft | 417 kts | 230° |
| 2026-05-06 12:17 | -33.94754 | -57.44871 | 31778 ft | 400 kts | 230° |
| 2026-05-06 12:17 | -33.97401 | -57.47964 | 30741 ft | 403 kts | 229° |
| 2026-05-06 12:17 | -33.98746 | -57.49539 | 30065 ft | 408 kts | 229° |
| 2026-05-06 12:18 | -34.01450 | -57.52705 | 29048 ft | 408 kts | 229° |
| 2026-05-06 12:18 | -34.03479 | -57.55079 | 28542 ft | 403 kts | 229° |
| 2026-05-06 12:18 | -34.05486 | -57.57429 | 28064 ft | 397 kts | 229° |
| 2026-05-06 12:18 | -34.06798 | -57.58968 | 27678 ft | 396 kts | 229° |
| 2026-05-06 12:19 | -34.08775 | -57.61288 | 26963 ft | 396 kts | 229° |
| 2026-05-06 12:19 | -34.10757 | -57.63616 | 26257 ft | 396 kts | 229° |
| 2026-05-06 12:19 | -34.12713 | -57.65915 | 25717 ft | 392 kts | 229° |
| 2026-05-06 12:19 | -34.14667 | -57.68210 | 25219 ft | 387 kts | 229° |
| 2026-05-06 12:20 | -34.16608 | -57.70493 | 24714 ft | 383 kts | 230° |
| 2026-05-06 12:20 | -34.18500 | -57.72721 | 24228 ft | 379 kts | 230° |
| 2026-05-06 12:20 | -34.20379 | -57.74935 | 23734 ft | 376 kts | 229° |
| 2026-05-06 12:20 | -34.22865 | -57.77866 | 23077 ft | 371 kts | 230° |
| 2026-05-06 12:21 | -34.24087 | -57.79307 | 22750 ft | 369 kts | 230° |
| 2026-05-06 12:21 | -34.26526 | -57.82187 | 22090 ft | 365 kts | 230° |
| 2026-05-06 12:21 | -34.27743 | -57.83625 | 21767 ft | 363 kts | 230° |
| 2026-05-06 12:21 | -34.30170 | -57.86499 | 21119 ft | 375 kts | 229° |
| 2026-05-06 12:22 | -34.31423 | -57.87983 | 20776 ft | 375 kts | 229° |
| 2026-05-06 12:22 | -34.33877 | -57.90886 | 20112 ft | 371 kts | 229° |
| 2026-05-06 12:22 | -34.35111 | -57.92346 | 19779 ft | 369 kts | 229° |
| 2026-05-06 12:22 | -34.36928 | -57.94498 | 19284 ft | 365 kts | 229° |
| 2026-05-06 12:23 | -34.38735 | -57.96640 | 18785 ft | 362 kts | 229° |
| 2026-05-06 12:23 | -34.40521 | -57.98759 | 18296 ft | 358 kts | 229° |
| 2026-05-06 12:23 | -34.42285 | -58.00865 | 17809 ft | 354 kts | 230° |
| 2026-05-06 12:23 | -34.43960 | -58.03040 | 17314 ft | 350 kts | 232° |
| 2026-05-06 12:24 | -34.45599 | -58.05207 | 16738 ft | 351 kts | 231° |
| 2026-05-06 12:24 | -34.47232 | -58.07355 | 16206 ft | 350 kts | 231° |
| 2026-05-06 12:24 | -34.48884 | -58.09519 | 15709 ft | 347 kts | 231° |
| 2026-05-06 12:24 | -34.50510 | -58.11645 | 15231 ft | 345 kts | 231° |
| 2026-05-06 12:25 | -34.52152 | -58.13790 | 14746 ft | 343 kts | 231° |
| 2026-05-06 12:25 | -34.53767 | -58.15901 | 14258 ft | 341 kts | 231° |
| 2026-05-06 12:25 | -34.55913 | -58.18707 | 13621 ft | 338 kts | 231° |
| 2026-05-06 12:25 | -34.56988 | -58.20114 | 13337 ft | 337 kts | 231° |
| 2026-05-06 12:26 | -34.59100 | -58.22879 | 12704 ft | 344 kts | 231° |
| 2026-05-06 12:26 | -34.60206 | -58.24331 | 12383 ft | 348 kts | 231° |
| 2026-05-06 12:26 | -34.61850 | -58.26484 | 11887 ft | 348 kts | 231° |
| 2026-05-06 12:26 | -34.63508 | -58.28657 | 11397 ft | 346 kts | 231° |
| 2026-05-06 12:27 | -34.65666 | -58.31487 | 10754 ft | 344 kts | 231° |
| 2026-05-06 12:27 | -34.67294 | -58.33624 | 10267 ft | 343 kts | 231° |
| 2026-05-06 12:27 | -34.68910 | -58.35749 | 9789 ft | 341 kts | 232° |
| 2026-05-06 12:27 | -34.70498 | -58.37843 | 9331 ft | 340 kts | 232° |
| 2026-05-06 12:28 | -34.72097 | -58.39942 | 8998 ft | 333 kts | 231° |
| 2026-05-06 12:28 | -34.73646 | -58.41974 | 8972 ft | 317 kts | 232° |
| 2026-05-06 12:28 | -34.75102 | -58.43886 | 8962 ft | 302 kts | 232° |
| 2026-05-06 12:28 | -34.76500 | -58.45727 | 8955 ft | 287 kts | 232° |
| 2026-05-06 12:29 | -34.77807 | -58.47451 | 8949 ft | 273 kts | 232° |
| 2026-05-06 12:29 | -34.79077 | -58.49126 | 8943 ft | 262 kts | 232° |
| 2026-05-06 12:29 | -34.80346 | -58.50812 | 8952 ft | 277 kts | 232° |
| 2026-05-06 12:29 | -34.81225 | -58.51972 | 8952 ft | 281 kts | 231° |
| 2026-05-06 12:30 | -34.83440 | -58.53685 | 8926 ft | 293 kts | 200° |
| 2026-05-06 12:30 | -34.84763 | -58.54102 | 8930 ft | 294 kts | 195° |
| 2026-05-06 12:30 | -34.87481 | -58.54752 | 8929 ft | 297 kts | 194° |
| 2026-05-06 12:30 | -34.89516 | -58.55224 | 8803 ft | 298 kts | 194° |
| 2026-05-06 12:31 | -34.91545 | -58.55700 | 8523 ft | 297 kts | 194° |
| 2026-05-06 12:31 | -34.93557 | -58.56176 | 8195 ft | 296 kts | 194° |
| 2026-05-06 12:31 | -34.94898 | -58.56495 | 7973 ft | 296 kts | 194° |
| 2026-05-06 12:31 | -34.97595 | -58.57135 | 7599 ft | 290 kts | 193° |
| 2026-05-06 12:32 | -34.99526 | -58.57592 | 7571 ft | 274 kts | 194° |
| 2026-05-06 12:32 | -35.01359 | -58.58027 | 7483 ft | 266 kts | 194° |
| 2026-05-06 12:32 | -35.03175 | -58.58461 | 7229 ft | 265 kts | 193° |
| 2026-05-06 12:32 | -35.04980 | -58.58890 | 6891 ft | 267 kts | 192° |
| 2026-05-06 12:33 | -35.06224 | -58.59000 | 6541 ft | 274 kts | 175° |
| 2026-05-06 12:33 | -35.08586 | -58.57849 | 5840 ft | 279 kts | 137° |
| 2026-05-06 12:33 | -35.09733 | -58.55979 | 5366 ft | 276 kts | 109° |
| 2026-05-06 12:33 | -35.10053 | -58.53756 | 5017 ft | 264 kts | 82° |
| 2026-05-06 12:34 | -35.09728 | -58.51620 | 4734 ft | 252 kts | 72° |
| 2026-05-06 12:34 | -35.09429 | -58.50250 | 4539 ft | 246 kts | 72° |
| 2026-05-06 12:34 | -35.08940 | -58.48292 | 4231 ft | 238 kts | 62° |
| 2026-05-06 12:34 | -35.07551 | -58.46370 | 3935 ft | 220 kts | 31° |
| 2026-05-06 12:35 | -35.06655 | -58.45813 | 3799 ft | 215 kts | 20° |
| 2026-05-06 12:35 | -35.05629 | -58.45461 | 3661 ft | 209 kts | 8° |
| 2026-05-06 12:35 | -35.03738 | -58.45555 | 3410 ft | 197 kts | 352° |
| 2026-05-06 12:35 | -35.02417 | -58.45923 | 3240 ft | 189 kts | 348° |
| 2026-05-06 12:36 | -35.01288 | -58.46301 | 3085 ft | 185 kts | 347° |
| 2026-05-06 12:36 | -35.00051 | -58.46730 | 2910 ft | 177 kts | 347° |
| 2026-05-06 12:36 | -34.98859 | -58.47144 | 2746 ft | 175 kts | 348° |
| 2026-05-06 12:36 | -34.97700 | -58.47546 | 2641 ft | 173 kts | 348° |
| 2026-05-06 12:37 | -34.96529 | -58.47952 | 2601 ft | 170 kts | 348° |
| 2026-05-06 12:37 | -34.95383 | -58.48349 | 2583 ft | 172 kts | 348° |
| 2026-05-06 12:37 | -34.94225 | -58.48753 | 2343 ft | 167 kts | 348° |
| 2026-05-06 12:37 | -34.93121 | -58.49135 | 2123 ft | 163 kts | 349° |
| 2026-05-06 12:38 | -34.92043 | -58.49507 | 1909 ft | 160 kts | 349° |
| 2026-05-06 12:38 | -34.91021 | -58.49865 | 1695 ft | 147 kts | 350° |
| 2026-05-06 12:38 | -34.90028 | -58.50205 | 1497 ft | 146 kts | 350° |
| 2026-05-06 12:38 | -34.89061 | -58.50538 | 1303 ft | 146 kts | 349° |
| 2026-05-06 12:39 | -34.88069 | -58.50884 | 1101 ft | 147 kts | 349° |
| 2026-05-06 12:39 | -34.87089 | -58.51224 | 896 ft | 147 kts | 348° |
| 2026-05-06 12:39 | -34.86119 | -58.51561 | 698 ft | 148 kts | 347° |
| 2026-05-06 12:39 | -34.85289 | -58.51843 | 507 ft | 148 kts | 347° |
| 2026-05-06 12:40 | -34.84300 | -58.52185 | 293 ft | 148 kts | 346° |
| 2026-05-06 12:40 | -34.83313 | -58.52534 | 124 ft | 149 kts | 346° |
| 2026-05-06 12:40 | -34.82357 | -58.52864 | 79 ft | 125 kts | 344° |
| 2026-05-06 12:40 | -34.81817 | -58.53050 | 78 ft | 84 kts | 343° |
| 2026-05-06 12:41 | -34.81635 | -58.53113 | 79 ft | 38 kts | 344° |
| 2026-05-06 12:41 | -34.81531 | -58.53188 | 79 ft | 9 kts | 295° |
| 2026-05-06 12:41 | -34.81513 | -58.53238 | 80 ft | 9 kts | 295° |
| 2026-05-06 12:41 | -34.81472 | -58.53334 | 81 ft | 9 kts | 299° |
| 2026-05-06 12:42 | -34.81451 | -58.53377 | 81 ft | 8 kts | 299° |
| 2026-05-06 12:42 | -34.81423 | -58.53440 | 82 ft | 8 kts | 298° |
| 2026-05-06 12:42 | -34.81419 | -58.53450 | 82 ft | 8 kts | 298° |